createdAt,value
2022-11-29T00:00:43.983Z,0.00
2022-11-29T00:01:44.002Z,0.00
2022-11-29T00:02:43.961Z,0.00
2022-11-29T00:03:43.807Z,0.00
2022-11-29T00:04:43.973Z,0.00
2022-11-29T00:05:43.666Z,0.00
2022-11-29T00:06:43.624Z,0.00
2022-11-29T00:07:45.075Z,0.00
2022-11-29T00:08:43.473Z,0.00
2022-11-29T00:09:43.403Z,0.00
2022-11-29T00:10:43.318Z,0.00
2022-11-29T00:11:43.304Z,0.00
2022-11-29T00:12:43.184Z,0.00
2022-11-29T00:13:43.175Z,0.00
2022-11-29T00:14:43.317Z,0.00
2022-11-29T00:15:43.027Z,0.00
2022-11-29T00:16:43.170Z,0.00
2022-11-29T00:17:42.871Z,0.00
2022-11-29T00:18:42.801Z,0.00
2022-11-29T00:19:42.782Z,0.00
2022-11-29T00:20:42.729Z,0.00
2022-11-29T00:21:42.669Z,0.00
2022-11-29T00:22:42.599Z,0.00
2022-11-29T00:23:42.509Z,0.00
2022-11-29T00:24:42.825Z,0.00
2022-11-29T00:25:42.397Z,0.00
2022-11-29T00:26:42.359Z,0.00
2022-11-29T00:27:42.256Z,0.00
2022-11-29T00:28:42.170Z,0.00
2022-11-29T00:29:42.127Z,0.00
2022-11-29T00:30:42.167Z,0.00
2022-11-29T00:31:42.015Z,0.00
2022-11-29T00:32:41.936Z,0.00
2022-11-29T00:33:41.865Z,0.00
2022-11-29T00:34:41.997Z,0.00
2022-11-29T00:35:41.741Z,0.00
2022-11-29T00:36:41.675Z,0.00
2022-11-29T00:37:41.664Z,0.00
2022-11-29T00:38:41.573Z,0.00
2022-11-29T00:39:41.515Z,0.00
2022-11-29T00:40:41.396Z,0.00
2022-11-29T00:41:41.358Z,0.00
2022-11-29T00:42:41.300Z,0.00
2022-11-29T00:43:41.215Z,0.00
2022-11-29T00:44:41.427Z,0.00
2022-11-29T00:45:41.173Z,0.00
2022-11-29T00:46:41.038Z,0.00
2022-11-29T00:47:40.973Z,0.00
2022-11-29T00:48:40.912Z,0.00
2022-11-29T00:50:02.076Z,0.00
2022-11-29T00:50:40.762Z,0.00
2022-11-29T00:51:40.714Z,0.00
2022-11-29T00:52:40.655Z,0.00
2022-11-29T00:53:40.614Z,0.00
2022-11-29T00:54:40.526Z,0.00
2022-11-29T00:55:40.503Z,0.00
2022-11-29T00:56:40.421Z,0.00
2022-11-29T00:57:40.314Z,0.00
2022-11-29T00:58:40.245Z,0.00
2022-11-29T00:59:40.266Z,0.00
2022-11-29T01:00:40.142Z,0.00
2022-11-29T01:01:40.149Z,0.00
2022-11-29T01:02:40.042Z,0.00
2022-11-29T01:03:39.918Z,0.00
2022-11-29T01:04:39.862Z,0.00
2022-11-29T01:05:39.820Z,0.00
2022-11-29T01:06:39.762Z,0.00
2022-11-29T01:09:58.124Z,0.00
2022-11-29T01:10:59.089Z,0.00
2022-11-29T01:11:59.023Z,0.00
2022-11-29T01:12:58.910Z,0.00
2022-11-29T01:13:58.894Z,0.00
2022-11-29T01:14:58.820Z,0.00
2022-11-29T01:15:58.741Z,0.00
2022-11-29T01:16:58.721Z,0.00
2022-11-29T01:17:58.596Z,0.00
2022-11-29T01:18:58.557Z,0.00
2022-11-29T01:19:58.458Z,0.00
2022-11-29T01:20:58.433Z,0.00
2022-11-29T01:21:58.364Z,0.00
2022-11-29T01:22:58.294Z,0.00
2022-11-29T01:23:58.202Z,0.00
2022-11-29T01:24:58.165Z,0.00
2022-11-29T01:25:58.073Z,0.00
2022-11-29T01:26:58.023Z,0.00
2022-11-29T01:27:57.975Z,0.00
2022-11-29T01:28:57.941Z,0.00
2022-11-29T01:29:57.879Z,0.00
2022-11-29T01:30:57.831Z,0.00
2022-11-29T01:31:57.716Z,0.00
2022-11-29T01:32:57.697Z,0.00
2022-11-29T01:33:57.588Z,0.00
2022-11-29T01:34:57.527Z,0.00
2022-11-29T01:35:57.494Z,0.00
2022-11-29T01:36:57.370Z,0.00
2022-11-29T01:37:57.310Z,0.00
2022-11-29T01:38:57.254Z,0.00
2022-11-29T01:39:57.200Z,0.00
2022-11-29T01:40:57.165Z,0.00
2022-11-29T01:41:57.072Z,0.00
2022-11-29T01:42:57.010Z,0.00
2022-11-29T01:43:56.947Z,0.00
2022-11-29T01:44:56.866Z,0.00
2022-11-29T01:45:56.837Z,0.00
2022-11-29T01:46:56.735Z,0.00
2022-11-29T01:47:56.719Z,0.00
2022-11-29T01:48:56.598Z,0.00
2022-11-29T01:49:56.566Z,0.00
2022-11-29T01:50:56.568Z,0.00
2022-11-29T01:51:56.432Z,0.00
2022-11-29T01:52:56.339Z,0.00
2022-11-29T01:53:56.304Z,0.00
2022-11-29T01:54:56.242Z,0.00
2022-11-29T01:55:56.207Z,0.00
2022-11-29T01:56:56.136Z,0.00
2022-11-29T01:57:56.051Z,0.00
2022-11-29T01:58:55.958Z,0.00
2022-11-29T01:59:55.918Z,0.00
2022-11-29T02:00:55.867Z,0.00
2022-11-29T02:01:55.821Z,0.00
2022-11-29T02:05:14.141Z,0.00
2022-11-29T02:06:15.102Z,0.00
2022-11-29T02:07:15.087Z,0.00
2022-11-29T02:08:14.994Z,0.00
2022-11-29T02:09:14.915Z,0.00
2022-11-29T02:10:15.160Z,0.00
2022-11-29T02:11:14.779Z,0.00
2022-11-29T02:12:14.740Z,0.00
2022-11-29T02:13:14.646Z,0.00
2022-11-29T02:14:14.593Z,0.00
2022-11-29T02:15:14.495Z,0.00
2022-11-29T02:16:14.516Z,0.00
2022-11-29T02:17:14.410Z,0.00
2022-11-29T02:18:14.340Z,0.00
2022-11-29T02:19:14.243Z,0.00
2022-11-29T02:20:14.180Z,0.00
2022-11-29T02:21:14.166Z,0.00
2022-11-29T02:24:32.545Z,0.00
2022-11-29T02:25:33.474Z,0.00
2022-11-29T02:26:33.400Z,0.00
2022-11-29T02:27:33.320Z,0.00
2022-11-29T02:28:33.233Z,0.00
2022-11-29T02:29:33.207Z,0.00
2022-11-29T02:30:33.223Z,0.00
2022-11-29T02:31:33.070Z,0.00
2022-11-29T02:32:33.002Z,0.00
2022-11-29T02:33:32.925Z,0.00
2022-11-29T02:34:32.873Z,0.00
2022-11-29T02:35:32.815Z,0.00
2022-11-29T02:36:32.775Z,0.00
2022-11-29T02:37:32.685Z,0.00
2022-11-29T02:38:32.617Z,0.00
2022-11-29T02:39:32.556Z,0.00
2022-11-29T02:40:32.476Z,0.00
2022-11-29T02:41:53.404Z,0.00
2022-11-29T02:42:32.359Z,0.00
2022-11-29T02:43:32.270Z,0.00
2022-11-29T02:44:32.233Z,0.00
2022-11-29T02:45:32.169Z,0.00
2022-11-29T02:46:32.164Z,0.00
2022-11-29T02:47:32.058Z,0.00
2022-11-29T02:48:31.997Z,0.00
2022-11-29T02:49:31.920Z,0.00
2022-11-29T02:50:31.781Z,1.00
2022-11-29T02:51:31.761Z,0.00
2022-11-29T02:52:31.720Z,0.00
2022-11-29T02:53:31.710Z,0.00
2022-11-29T02:54:31.602Z,0.00
2022-11-29T02:55:31.503Z,0.00
2022-11-29T02:56:31.464Z,0.00
2022-11-29T02:57:31.397Z,0.00
2022-11-29T02:58:31.339Z,0.00
2022-11-29T03:01:49.769Z,0.00
2022-11-29T03:02:50.775Z,0.00
2022-11-29T03:03:50.597Z,0.00
2022-11-29T03:04:50.558Z,0.00
2022-11-29T03:05:50.498Z,0.00
2022-11-29T03:06:50.443Z,0.00
2022-11-29T03:07:50.469Z,0.00
2022-11-29T03:08:50.311Z,0.00
2022-11-29T03:09:50.195Z,0.00
2022-11-29T03:10:50.109Z,1.00
2022-11-29T03:11:50.112Z,0.00
2022-11-29T03:12:50.033Z,0.00
2022-11-29T03:13:49.976Z,0.00
2022-11-29T03:14:49.918Z,0.00
2022-11-29T03:15:49.936Z,0.00
2022-11-29T03:16:49.761Z,0.00
2022-11-29T03:17:49.725Z,0.00
2022-11-29T03:18:49.680Z,0.00
2022-11-29T03:19:49.577Z,0.00
2022-11-29T03:20:49.509Z,0.00
2022-11-29T03:21:49.426Z,0.00
2022-11-29T03:22:49.403Z,0.00
2022-11-29T03:23:49.342Z,0.00
2022-11-29T03:24:49.250Z,0.00
2022-11-29T03:25:49.216Z,0.00
2022-11-29T03:26:49.108Z,1.00
2022-11-29T03:27:49.008Z,1.00
2022-11-29T03:28:48.998Z,0.00
2022-11-29T03:29:48.906Z,0.00
2022-11-29T03:30:48.875Z,0.00
2022-11-29T03:31:48.802Z,0.00
2022-11-29T03:32:48.737Z,0.00
2022-11-29T03:33:48.680Z,0.00
2022-11-29T03:34:51.808Z,0.00
2022-11-29T03:35:48.529Z,0.00
2022-11-29T03:36:48.480Z,0.00
2022-11-29T03:37:48.421Z,0.00
2022-11-29T03:38:48.357Z,0.00
2022-11-29T03:39:48.297Z,0.00
2022-11-29T03:40:48.259Z,0.00
2022-11-29T03:41:48.192Z,0.00
2022-11-29T03:42:48.118Z,0.00
2022-11-29T03:43:48.034Z,0.00
2022-11-29T03:44:47.952Z,0.00
2022-11-29T03:45:47.910Z,0.00
2022-11-29T03:46:47.846Z,0.00
2022-11-29T03:47:47.810Z,0.00
2022-11-29T03:48:47.735Z,0.00
2022-11-29T03:49:47.680Z,0.00
2022-11-29T03:50:47.595Z,0.00
2022-11-29T03:51:47.501Z,0.00
2022-11-29T03:52:47.443Z,0.00
2022-11-29T03:53:47.430Z,0.00
2022-11-29T03:55:08.347Z,0.00
2022-11-29T03:55:47.244Z,0.00
2022-11-29T03:56:47.208Z,0.00
2022-11-29T03:57:47.121Z,0.00
2022-11-29T03:58:47.081Z,0.00
2022-11-29T03:59:47.044Z,0.00
2022-11-29T04:00:46.955Z,0.00
2022-11-29T04:01:46.923Z,0.00
2022-11-29T04:02:46.896Z,0.00
2022-11-29T04:03:46.759Z,0.00
2022-11-29T04:04:46.929Z,0.00
2022-11-29T04:05:46.630Z,0.00
2022-11-29T04:06:46.557Z,0.00
2022-11-29T04:07:46.567Z,0.00
2022-11-29T04:08:46.430Z,0.00
2022-11-29T04:09:46.415Z,0.00
2022-11-29T04:10:46.314Z,0.00
2022-11-29T04:11:46.246Z,0.00
2022-11-29T04:13:07.175Z,0.00
2022-11-29T04:13:46.123Z,0.00
2022-11-29T04:14:46.253Z,0.00
2022-11-29T04:15:46.001Z,0.00
2022-11-29T04:16:45.944Z,0.00
2022-11-29T04:17:45.837Z,0.00
2022-11-29T04:18:45.800Z,0.00
2022-11-29T04:19:45.771Z,0.00
2022-11-29T04:20:48.333Z,0.00
2022-11-29T04:21:45.585Z,0.00
2022-11-29T04:22:45.519Z,0.00
2022-11-29T04:23:45.485Z,0.00
2022-11-29T04:24:45.812Z,0.00
2022-11-29T04:25:45.361Z,0.00
2022-11-29T04:26:45.322Z,0.00
2022-11-29T04:27:45.238Z,0.00
2022-11-29T04:28:45.190Z,0.00
2022-11-29T04:29:45.114Z,0.00
2022-11-29T04:30:45.088Z,0.00
2022-11-29T04:31:44.994Z,0.00
2022-11-29T04:32:44.937Z,0.00
2022-11-29T04:33:44.872Z,0.00
2022-11-29T04:34:45.151Z,0.00
2022-11-29T04:35:44.724Z,0.00
2022-11-29T04:36:44.668Z,0.00
2022-11-29T04:37:44.593Z,0.00
2022-11-29T04:38:44.531Z,0.00
2022-11-29T04:39:44.460Z,0.00
2022-11-29T04:40:44.393Z,0.00
2022-11-29T04:41:44.333Z,0.00
2022-11-29T04:42:44.265Z,0.00
2022-11-29T04:43:44.207Z,0.00
2022-11-29T04:44:44.521Z,0.00
2022-11-29T04:45:44.076Z,0.00
2022-11-29T04:46:44.010Z,0.00
2022-11-29T04:47:43.923Z,0.00
2022-11-29T04:51:02.323Z,0.00
2022-11-29T04:52:03.268Z,0.00
2022-11-29T04:53:03.186Z,0.00
2022-11-29T04:54:03.149Z,0.00
2022-11-29T04:55:03.086Z,0.00
2022-11-29T04:56:03.296Z,0.00
2022-11-29T04:57:02.929Z,0.00
2022-11-29T04:58:02.838Z,0.00
2022-11-29T04:59:02.831Z,0.00
2022-11-29T05:00:02.735Z,0.00
2022-11-29T05:01:02.645Z,0.00
2022-11-29T05:02:02.693Z,0.00
2022-11-29T05:03:02.590Z,0.00
2022-11-29T05:04:02.508Z,0.00
2022-11-29T05:05:02.387Z,0.00
2022-11-29T05:06:02.322Z,0.00
2022-11-29T05:07:02.284Z,0.00
2022-11-29T05:09:41.199Z,0.00
2022-11-29T05:10:42.153Z,0.00
2022-11-29T05:11:42.052Z,0.00
2022-11-29T05:12:42.020Z,0.00
2022-11-29T05:13:41.925Z,0.00
2022-11-29T05:14:42.075Z,0.00
2022-11-29T05:15:41.879Z,0.00
2022-11-29T05:16:41.789Z,0.00
2022-11-29T05:17:41.723Z,0.00
2022-11-29T05:18:41.612Z,0.00
2022-11-29T05:19:41.551Z,0.00
2022-11-29T05:20:41.549Z,0.00
2022-11-29T05:21:41.442Z,0.00
2022-11-29T05:22:41.357Z,0.00
2022-11-29T05:23:41.325Z,0.00
2022-11-29T05:24:41.275Z,0.00
2022-11-29T05:25:41.192Z,0.00
2022-11-29T05:27:02.107Z,0.00
2022-11-29T05:27:41.060Z,0.00
2022-11-29T05:28:41.038Z,0.00
2022-11-29T05:29:40.927Z,0.00
2022-11-29T05:30:40.861Z,0.00
2022-11-29T05:31:40.854Z,0.00
2022-11-29T05:32:40.736Z,0.00
2022-11-29T05:33:40.673Z,0.00
2022-11-29T05:34:40.584Z,0.00
2022-11-29T05:35:40.541Z,0.00
2022-11-29T05:36:40.512Z,0.00
2022-11-29T05:37:40.417Z,0.00
2022-11-29T05:38:40.369Z,0.00
2022-11-29T05:39:40.298Z,0.00
2022-11-29T05:40:40.253Z,0.00
2022-11-29T05:41:40.159Z,0.00
2022-11-29T05:42:40.099Z,0.00
2022-11-29T05:43:40.037Z,0.00
2022-11-29T05:44:40.005Z,0.00
2022-11-29T05:45:39.931Z,0.00
2022-11-29T05:46:39.980Z,0.00
2022-11-29T05:47:39.782Z,0.00
2022-11-29T05:48:39.740Z,0.00
2022-11-29T05:49:39.651Z,0.00
2022-11-29T05:50:39.602Z,0.00
2022-11-29T05:51:39.549Z,0.00
2022-11-29T05:52:39.480Z,0.00
2022-11-29T05:53:39.422Z,0.00
2022-11-29T05:54:39.306Z,0.00
2022-11-29T05:55:39.241Z,0.00
2022-11-29T05:56:39.250Z,0.00
2022-11-29T05:57:39.141Z,0.00
2022-11-29T05:58:39.049Z,0.00
2022-11-29T05:59:39.014Z,0.00
2022-11-29T06:00:38.929Z,0.00
2022-11-29T06:01:38.963Z,0.00
2022-11-29T06:02:38.834Z,0.00
2022-11-29T06:03:38.781Z,0.00
2022-11-29T06:04:38.670Z,0.00
2022-11-29T06:05:38.651Z,0.00
2022-11-29T06:06:38.563Z,0.00
2022-11-29T06:07:38.641Z,0.00
2022-11-29T06:08:38.467Z,0.00
2022-11-29T06:09:38.389Z,0.00
2022-11-29T06:10:38.278Z,0.00
2022-11-29T06:11:38.243Z,0.00
2022-11-29T06:12:38.161Z,0.00
2022-11-29T06:13:38.111Z,0.00
2022-11-29T06:14:38.030Z,0.00
2022-11-29T06:15:37.984Z,0.00
2022-11-29T06:16:37.988Z,0.00
2022-11-29T06:17:39.380Z,0.00
2022-11-29T06:18:37.826Z,0.00
2022-11-29T06:19:37.730Z,0.00
2022-11-29T06:20:58.697Z,0.00
2022-11-29T06:21:37.604Z,0.00
2022-11-29T06:22:37.549Z,0.00
2022-11-29T06:23:37.455Z,0.00
2022-11-29T06:24:37.409Z,0.00
2022-11-29T06:25:37.345Z,0.00
2022-11-29T06:26:37.267Z,0.00
2022-11-29T06:27:37.259Z,0.00
2022-11-29T06:28:37.150Z,0.00
2022-11-29T06:29:37.085Z,0.00
2022-11-29T06:30:37.012Z,0.00
2022-11-29T06:31:37.038Z,0.00
2022-11-29T06:32:36.844Z,1.00
2022-11-29T06:33:36.783Z,1.00
2022-11-29T06:34:36.690Z,1.00
2022-11-29T06:35:36.676Z,1.00
2022-11-29T06:36:36.591Z,3.00
2022-11-29T06:37:36.505Z,2.00
2022-11-29T06:38:57.439Z,2.00
2022-11-29T06:39:36.442Z,3.00
2022-11-29T06:40:36.355Z,3.00
2022-11-29T06:41:36.283Z,3.00
2022-11-29T06:42:36.234Z,3.00
2022-11-29T06:43:36.143Z,3.00
2022-11-29T06:44:36.122Z,3.00
2022-11-29T06:45:36.006Z,4.00
2022-11-29T06:46:36.015Z,2.00
2022-11-29T06:47:35.899Z,1.00
2022-11-29T06:48:35.846Z,3.00
2022-11-29T06:49:35.758Z,3.00
2022-11-29T06:50:35.739Z,6.00
2022-11-29T06:51:35.623Z,2.00
2022-11-29T06:52:35.550Z,7.00
2022-11-29T06:53:35.502Z,3.00
2022-11-29T06:54:35.458Z,5.00
2022-11-29T06:55:35.391Z,6.00
2022-11-29T06:58:14.175Z,7.00
2022-11-29T06:59:15.124Z,7.00
2022-11-29T07:00:15.031Z,7.00
2022-11-29T07:01:15.103Z,9.00
2022-11-29T07:02:15.007Z,9.00
2022-11-29T07:03:14.863Z,10.00
2022-11-29T07:04:14.806Z,11.00
2022-11-29T07:05:14.723Z,13.00
2022-11-29T07:06:14.779Z,13.00
2022-11-29T07:07:14.586Z,17.00
2022-11-29T07:08:14.591Z,15.00
2022-11-29T07:09:14.496Z,19.00
2022-11-29T07:10:15.087Z,21.00
2022-11-29T07:11:14.354Z,26.00
2022-11-29T07:12:14.264Z,27.00
2022-11-29T07:13:14.222Z,31.00
2022-11-29T07:14:14.187Z,42.00
2022-11-29T07:15:14.080Z,42.00
2022-11-29T07:16:14.085Z,49.00
2022-11-29T07:17:13.969Z,51.00
2022-11-29T07:18:13.878Z,51.00
2022-11-29T07:19:13.889Z,51.00
2022-11-29T07:20:13.805Z,56.00
2022-11-29T07:21:13.681Z,54.00
2022-11-29T07:22:13.619Z,52.00
2022-11-29T07:23:13.609Z,47.00
2022-11-29T07:24:13.566Z,56.00
2022-11-29T07:25:13.455Z,56.00
2022-11-29T07:26:13.440Z,60.00
2022-11-29T07:27:13.349Z,72.00
2022-11-29T07:28:13.260Z,77.00
2022-11-29T07:29:13.241Z,92.00
2022-11-29T07:30:13.133Z,105.00
2022-11-29T07:31:13.090Z,106.00
2022-11-29T07:34:31.419Z,105.00
2022-11-29T07:35:32.366Z,103.00
2022-11-29T07:36:32.273Z,105.00
2022-11-29T07:37:32.190Z,104.00
2022-11-29T07:38:32.179Z,114.00
2022-11-29T07:39:32.118Z,120.00
2022-11-29T07:40:37.322Z,119.00
2022-11-29T07:41:31.963Z,115.00
2022-11-29T07:42:31.917Z,117.00
2022-11-29T07:43:31.828Z,121.00
2022-11-29T07:44:31.746Z,120.00
2022-11-29T07:45:31.748Z,122.00
2022-11-29T07:46:31.743Z,130.00
2022-11-29T07:47:35.726Z,134.00
2022-11-29T07:48:31.505Z,147.00
2022-11-29T07:49:31.419Z,149.00
2022-11-29T07:50:31.383Z,151.00
2022-11-29T07:51:31.311Z,150.00
2022-11-29T07:52:31.225Z,147.00
2022-11-29T07:53:31.186Z,139.00
2022-11-29T07:54:31.146Z,139.00
2022-11-29T07:55:31.057Z,144.00
2022-11-29T07:56:30.994Z,147.00
2022-11-29T07:57:30.969Z,162.00
2022-11-29T07:58:30.888Z,162.00
2022-11-29T07:59:30.789Z,183.00
2022-11-29T08:00:30.771Z,203.00
2022-11-29T08:01:30.706Z,203.00
2022-11-29T08:02:30.671Z,207.00
2022-11-29T08:03:30.584Z,203.00
2022-11-29T08:04:30.497Z,209.00
2022-11-29T08:05:30.488Z,225.00
2022-11-29T08:06:30.392Z,233.00
2022-11-29T08:07:30.317Z,220.00
2022-11-29T08:08:30.261Z,217.00
2022-11-29T08:09:30.149Z,223.00
2022-11-29T08:10:30.122Z,245.00
2022-11-29T08:11:30.008Z,297.00
2022-11-29T08:12:29.956Z,330.00
2022-11-29T08:13:29.911Z,321.00
2022-11-29T08:14:29.841Z,315.00
2022-11-29T08:15:29.822Z,304.00
2022-11-29T08:16:29.759Z,328.00
2022-11-29T08:17:29.661Z,317.00
2022-11-29T08:18:29.619Z,300.00
2022-11-29T08:19:29.500Z,313.00
2022-11-29T08:20:29.434Z,301.00
2022-11-29T08:21:29.391Z,313.00
2022-11-29T08:22:29.333Z,330.00
2022-11-29T08:23:30.790Z,328.00
2022-11-29T08:24:29.205Z,306.00
2022-11-29T08:25:29.280Z,269.00
2022-11-29T08:26:31.644Z,243.00
2022-11-29T08:27:30.209Z,250.00
2022-11-29T08:28:29.018Z,253.00
2022-11-29T08:29:28.925Z,241.00
2022-11-29T08:30:28.889Z,233.00
2022-11-29T08:31:28.820Z,236.00
2022-11-29T08:32:28.715Z,243.00
2022-11-29T08:33:28.650Z,248.00
2022-11-29T08:34:28.568Z,262.00
2022-11-29T08:35:28.603Z,263.00
2022-11-29T08:36:28.556Z,252.00
2022-11-29T08:37:28.344Z,241.00
2022-11-29T08:38:28.301Z,238.00
2022-11-29T08:39:28.480Z,231.00
2022-11-29T08:40:28.183Z,230.00
2022-11-29T08:41:28.147Z,215.00
2022-11-29T08:42:28.061Z,229.00
2022-11-29T08:43:28.005Z,247.00
2022-11-29T08:44:27.931Z,235.00
2022-11-29T08:45:30.336Z,257.00
2022-11-29T08:46:27.844Z,258.00
2022-11-29T08:47:27.777Z,259.00
2022-11-29T08:48:27.693Z,263.00
2022-11-29T08:49:27.641Z,244.00
2022-11-29T08:50:27.542Z,256.00
2022-11-29T08:51:27.497Z,247.00
2022-11-29T08:52:27.469Z,208.00
2022-11-29T08:53:27.498Z,192.00
2022-11-29T08:54:27.305Z,225.00
2022-11-29T08:55:27.233Z,237.00
2022-11-29T08:57:42.453Z,274.00
2022-11-29T08:58:27.049Z,292.00
2022-11-29T08:59:26.976Z,327.00
2022-11-29T09:00:27.027Z,304.00
2022-11-29T09:01:26.924Z,319.00
2022-11-29T09:02:26.841Z,313.00
2022-11-29T09:03:47.702Z,341.00
2022-11-29T09:04:26.784Z,351.00
2022-11-29T09:05:26.707Z,327.00
2022-11-29T09:06:26.865Z,328.00
2022-11-29T09:07:26.595Z,309.00
2022-11-29T09:08:26.438Z,306.00
2022-11-29T09:09:26.648Z,324.00
2022-11-29T09:10:26.267Z,336.00
2022-11-29T09:11:26.428Z,358.00
2022-11-29T09:12:26.176Z,346.00
2022-11-29T09:13:26.072Z,295.00
2022-11-29T09:14:26.048Z,342.00
2022-11-29T09:15:25.964Z,389.00
2022-11-29T09:16:25.927Z,391.00
2022-11-29T09:17:25.820Z,355.00
2022-11-29T09:18:25.766Z,388.00
2022-11-29T09:19:25.665Z,368.00
2022-11-29T09:20:25.682Z,348.00
2022-11-29T09:23:43.957Z,436.00
2022-11-29T09:24:45.093Z,462.00
2022-11-29T09:25:44.823Z,397.00
2022-11-29T09:26:44.760Z,352.00
2022-11-29T09:27:44.672Z,292.00
2022-11-29T09:28:44.642Z,319.00
2022-11-29T09:29:44.591Z,277.00
2022-11-29T09:30:44.528Z,274.00
2022-11-29T09:31:44.701Z,275.00
2022-11-29T09:32:46.253Z,281.00
2022-11-29T09:33:44.334Z,244.00
2022-11-29T09:34:44.532Z,225.00
2022-11-29T09:35:44.187Z,239.00
2022-11-29T09:36:44.120Z,222.00
2022-11-29T09:37:44.057Z,214.00
2022-11-29T09:38:43.961Z,202.00
2022-11-29T09:39:43.957Z,226.00
2022-11-29T09:43:04.879Z,248.00
2022-11-29T09:44:03.698Z,248.00
2022-11-29T09:45:04.731Z,253.00
2022-11-29T09:46:04.389Z,257.00
2022-11-29T09:47:03.015Z,250.00
2022-11-29T09:48:03.089Z,247.00
2022-11-29T09:49:02.983Z,256.00
2022-11-29T09:50:02.887Z,264.00
2022-11-29T09:51:02.852Z,296.00
2022-11-29T09:52:02.682Z,310.00
2022-11-29T09:53:02.661Z,315.00
2022-11-29T09:54:02.649Z,312.00
2022-11-29T09:55:02.623Z,279.00
2022-11-29T09:56:02.525Z,270.00
2022-11-29T09:57:06.101Z,311.00
2022-11-29T09:58:02.318Z,334.00
2022-11-29T09:59:02.251Z,311.00
2022-11-29T10:00:02.233Z,317.00
2022-11-29T10:01:02.177Z,326.00
2022-11-29T10:02:02.150Z,288.00
2022-11-29T10:03:01.991Z,257.00
2022-11-29T10:04:01.932Z,252.00
2022-11-29T10:05:01.899Z,249.00
2022-11-29T10:06:01.906Z,296.00
2022-11-29T10:07:01.750Z,378.00
2022-11-29T10:08:01.706Z,311.00
2022-11-29T10:09:01.647Z,378.00
2022-11-29T10:10:01.522Z,374.00
2022-11-29T10:11:01.487Z,327.00
2022-11-29T10:12:02.625Z,339.00
2022-11-29T10:13:01.352Z,377.00
2022-11-29T10:14:01.323Z,376.00
2022-11-29T10:15:01.227Z,359.00
2022-11-29T10:16:01.186Z,359.00
2022-11-29T10:17:01.286Z,372.00
2022-11-29T10:18:01.057Z,368.00
2022-11-29T10:19:01.012Z,337.00
2022-11-29T10:20:00.985Z,347.00
2022-11-29T10:21:01.075Z,321.00
2022-11-29T10:22:00.754Z,312.00
2022-11-29T10:23:00.747Z,353.00
2022-11-29T10:24:00.687Z,317.00
2022-11-29T10:25:00.589Z,287.00
2022-11-29T10:26:00.538Z,296.00
2022-11-29T10:27:00.488Z,330.00
2022-11-29T10:28:00.408Z,316.00
2022-11-29T10:29:00.370Z,340.00
2022-11-29T10:30:00.314Z,325.00
2022-11-29T10:31:00.250Z,316.00
2022-11-29T10:32:00.176Z,337.00
2022-11-29T10:33:00.116Z,307.00
2022-11-29T10:34:00.012Z,311.00
2022-11-29T10:34:59.957Z,266.00
2022-11-29T10:36:20.876Z,319.00
2022-11-29T10:36:59.847Z,310.00
2022-11-29T10:38:29.208Z,293.00
2022-11-29T10:38:59.802Z,291.00
2022-11-29T10:39:59.680Z,299.00
2022-11-29T10:40:59.570Z,269.00
2022-11-29T10:41:59.552Z,260.00
2022-11-29T10:42:59.416Z,281.00
2022-11-29T10:43:59.441Z,284.00
2022-11-29T10:44:59.312Z,270.00
2022-11-29T10:45:59.348Z,247.00
2022-11-29T10:46:59.165Z,273.00
2022-11-29T10:47:59.145Z,315.00
2022-11-29T10:48:59.056Z,290.00
2022-11-29T10:49:58.981Z,257.00
2022-11-29T10:50:58.965Z,315.00
2022-11-29T10:51:58.884Z,318.00
2022-11-29T10:53:00.256Z,325.00
2022-11-29T10:53:58.847Z,317.00
2022-11-29T10:54:59.714Z,304.00
2022-11-29T10:55:58.634Z,334.00
2022-11-29T10:56:58.571Z,366.00
2022-11-29T10:57:58.496Z,378.00
2022-11-29T10:58:58.452Z,359.00
2022-11-29T10:59:58.640Z,410.00
2022-11-29T11:00:58.479Z,427.00
2022-11-29T11:01:58.252Z,426.00
2022-11-29T11:02:58.214Z,443.00
2022-11-29T11:03:58.071Z,440.00
2022-11-29T11:04:58.007Z,449.00
2022-11-29T11:05:58.031Z,436.00
2022-11-29T11:06:57.888Z,448.00
2022-11-29T11:07:57.980Z,430.00
2022-11-29T11:08:57.763Z,447.00
2022-11-29T11:09:57.722Z,418.00
2022-11-29T11:11:01.694Z,427.00
2022-11-29T11:13:36.521Z,424.00
2022-11-29T11:14:37.454Z,410.00
2022-11-29T11:15:37.354Z,420.00
2022-11-29T11:16:37.921Z,456.00
2022-11-29T11:17:37.220Z,463.00
2022-11-29T11:18:37.163Z,449.00
2022-11-29T11:19:37.072Z,448.00
2022-11-29T11:20:37.173Z,448.00
2022-11-29T11:21:36.975Z,444.00
2022-11-29T11:22:36.905Z,434.00
2022-11-29T11:23:41.383Z,439.00
2022-11-29T11:24:36.956Z,422.00
2022-11-29T11:25:36.712Z,396.00
2022-11-29T11:26:36.659Z,376.00
2022-11-29T11:27:36.601Z,381.00
2022-11-29T11:28:36.548Z,364.00
2022-11-29T11:29:36.460Z,339.00
2022-11-29T11:30:36.482Z,346.00
2022-11-29T11:31:36.362Z,400.00
2022-11-29T11:32:36.297Z,343.00
2022-11-29T11:33:36.181Z,327.00
2022-11-29T11:34:36.154Z,380.00
2022-11-29T11:35:36.100Z,376.00
2022-11-29T11:36:36.040Z,378.00
2022-11-29T11:37:35.936Z,433.00
2022-11-29T11:38:35.923Z,410.00
2022-11-29T11:39:35.853Z,389.00
2022-11-29T11:40:35.854Z,397.00
2022-11-29T11:41:35.688Z,392.00
2022-11-29T11:42:35.632Z,416.00
2022-11-29T11:43:35.585Z,365.00
2022-11-29T11:44:51.221Z,376.00
2022-11-29T11:45:35.448Z,465.00
2022-11-29T11:46:36.021Z,504.00
2022-11-29T11:47:35.351Z,477.00
2022-11-29T11:48:35.269Z,480.00
2022-11-29T11:49:35.212Z,477.00
2022-11-29T11:50:35.126Z,478.00
2022-11-29T11:51:35.056Z,509.00
2022-11-29T11:52:39.768Z,445.00
2022-11-29T11:53:34.962Z,459.00
2022-11-29T11:54:34.861Z,412.00
2022-11-29T11:55:34.832Z,425.00
2022-11-29T11:56:34.736Z,404.00
2022-11-29T11:57:34.704Z,460.00
2022-11-29T11:58:34.610Z,474.00
2022-11-29T11:59:34.589Z,478.00
2022-11-29T12:01:01.918Z,444.00
2022-11-29T12:01:34.427Z,482.00
2022-11-29T12:02:34.476Z,513.00
2022-11-29T12:03:34.338Z,449.00
2022-11-29T12:04:34.223Z,418.00
2022-11-29T12:06:03.761Z,389.00
2022-11-29T12:06:34.125Z,447.00
2022-11-29T12:08:06.178Z,474.00
2022-11-29T12:08:34.303Z,475.00
2022-11-29T12:09:33.912Z,410.00
2022-11-29T12:10:33.867Z,446.00
2022-11-29T12:11:33.796Z,405.00
2022-11-29T12:12:33.719Z,411.00
2022-11-29T12:13:33.662Z,394.00
2022-11-29T12:14:33.587Z,465.00
2022-11-29T12:15:33.597Z,447.00
2022-11-29T12:16:33.463Z,474.00
2022-11-29T12:17:33.586Z,437.00
2022-11-29T12:18:33.334Z,436.00
2022-11-29T12:19:33.245Z,467.00
2022-11-29T12:20:33.236Z,492.00
2022-11-29T12:21:33.166Z,497.00
2022-11-29T12:22:33.102Z,513.00
2022-11-29T12:23:33.035Z,473.00
2022-11-29T12:24:32.945Z,516.00
2022-11-29T12:25:32.855Z,519.00
2022-11-29T12:26:56.399Z,520.00
2022-11-29T12:27:32.786Z,524.00
2022-11-29T12:28:32.716Z,482.00
2022-11-29T12:29:32.650Z,441.00
2022-11-29T12:30:32.588Z,493.00
2022-11-29T12:31:32.536Z,480.00
2022-11-29T12:32:32.409Z,435.00
2022-11-29T12:33:32.342Z,412.00
2022-11-29T12:34:32.284Z,436.00
2022-11-29T12:35:32.264Z,464.00
2022-11-29T12:36:32.187Z,449.00
2022-11-29T12:37:32.112Z,422.00
2022-11-29T12:38:32.078Z,403.00
2022-11-29T12:39:32.010Z,399.00
2022-11-29T12:40:31.946Z,377.00
2022-11-29T12:41:31.880Z,376.00
2022-11-29T12:42:31.801Z,489.00
2022-11-29T12:43:31.736Z,509.00
2022-11-29T12:44:31.663Z,421.00
2022-11-29T12:45:31.628Z,438.00
2022-11-29T12:46:31.620Z,507.00
2022-11-29T12:47:36.065Z,441.00
2022-11-29T12:48:31.447Z,428.00
2022-11-29T12:49:31.320Z,504.00
2022-11-29T12:50:31.281Z,448.00
2022-11-29T12:51:31.221Z,425.00
2022-11-29T12:52:31.166Z,478.00
2022-11-29T12:53:31.151Z,472.00
2022-11-29T12:54:31.046Z,492.00
2022-11-29T12:55:30.964Z,519.00
2022-11-29T12:56:30.925Z,461.00
2022-11-29T12:57:30.865Z,519.00
2022-11-29T12:58:30.798Z,533.00
2022-11-29T12:59:30.726Z,437.00
2022-11-29T13:00:30.672Z,360.00
2022-11-29T13:01:30.591Z,299.00
2022-11-29T13:02:30.552Z,257.00
2022-11-29T13:03:30.466Z,334.00
2022-11-29T13:04:30.421Z,369.00
2022-11-29T13:05:30.620Z,322.00
2022-11-29T13:06:30.258Z,412.00
2022-11-29T13:07:30.295Z,403.00
2022-11-29T13:08:30.194Z,457.00
2022-11-29T13:09:30.069Z,463.00
2022-11-29T13:10:30.033Z,435.00
2022-11-29T13:11:29.971Z,381.00
2022-11-29T13:12:29.876Z,376.00
2022-11-29T13:13:29.813Z,359.00
2022-11-29T13:14:45.128Z,333.00
2022-11-29T13:15:30.272Z,300.00
2022-11-29T13:16:31.510Z,291.00
2022-11-29T13:17:29.549Z,274.00
2022-11-29T13:18:29.469Z,256.00